createdAt,value
2023-04-27T00:02:22.377Z,4.57
2023-04-27T00:04:51.039Z,4.80
2023-04-27T00:07:19.205Z,4.47
2023-04-27T00:09:47.216Z,4.93
2023-04-27T00:12:15.185Z,5.05
2023-04-27T00:14:43.090Z,4.32
2023-04-27T00:17:11.027Z,4.38
2023-04-27T00:19:41.746Z,5.40
2023-04-27T00:22:43.847Z,4.65
2023-04-27T00:25:12.184Z,5.03
2023-04-27T00:27:40.096Z,5.30
2023-04-27T00:30:09.129Z,4.88
2023-04-27T00:32:37.111Z,5.10
2023-04-27T00:35:07.186Z,5.53
2023-04-27T00:37:40.382Z,5.25
2023-04-27T00:40:09.366Z,4.80
2023-04-27T00:42:37.567Z,5.72
2023-04-27T00:45:06.185Z,5.60
2023-04-27T00:47:34.452Z,4.82
2023-04-27T00:50:02.553Z,4.88
2023-04-27T00:52:32.619Z,5.90
2023-04-27T00:55:01.166Z,5.13
2023-04-27T00:57:29.187Z,5.85
2023-04-27T00:59:57.202Z,6.20
2023-04-27T01:02:25.212Z,5.50
2023-04-27T01:04:53.377Z,5.70
2023-04-27T01:07:26.532Z,5.78
2023-04-27T01:09:56.341Z,6.30
2023-04-27T01:12:24.218Z,6.22
2023-04-27T01:14:52.123Z,5.53
2023-04-27T01:17:20.649Z,5.78
2023-04-27T01:19:49.899Z,5.53
2023-04-27T01:22:17.830Z,5.47
2023-04-27T01:24:47.090Z,6.90
2023-04-27T01:27:15.023Z,6.28
2023-04-27T01:29:43.990Z,5.80
2023-04-27T01:32:12.934Z,5.88
2023-04-27T01:34:40.905Z,7.03
2023-04-27T01:37:08.814Z,5.85
2023-04-27T01:39:37.181Z,5.25
2023-04-27T01:42:06.693Z,5.82
2023-04-27T01:44:34.680Z,5.82
2023-04-27T01:47:02.672Z,5.70
2023-04-27T01:49:30.592Z,5.80
2023-04-27T01:51:58.408Z,6.15
2023-04-27T01:54:28.688Z,5.53
2023-04-27T01:56:58.643Z,6.15
2023-04-27T01:59:27.972Z,5.55
2023-04-27T02:01:56.449Z,5.78
2023-04-27T02:04:24.808Z,6.78
2023-04-27T02:06:52.717Z,6.10
2023-04-27T02:09:20.621Z,6.65
2023-04-27T02:11:48.481Z,6.13
2023-04-27T02:14:16.597Z,5.90
2023-04-27T02:16:45.905Z,5.53
2023-04-27T02:19:14.021Z,4.57
2023-04-27T02:21:42.309Z,5.57
2023-04-27T02:24:11.019Z,4.68
2023-04-27T02:26:38.862Z,4.70
2023-04-27T02:29:06.864Z,5.25
2023-04-27T02:31:35.361Z,4.63
2023-04-27T02:34:04.704Z,4.97
2023-04-27T02:36:32.736Z,5.30
2023-04-27T02:39:00.643Z,4.35
2023-04-27T02:41:28.958Z,4.35
2023-04-27T02:43:56.806Z,4.25
2023-04-27T02:46:24.982Z,4.82
2023-04-27T02:48:52.948Z,4.18
2023-04-27T02:51:22.260Z,5.95
2023-04-27T02:53:50.222Z,4.65
2023-04-27T02:56:18.118Z,4.80
2023-04-27T02:58:46.020Z,4.43
2023-04-27T03:01:13.972Z,4.68
2023-04-27T03:03:42.069Z,4.28
2023-04-27T03:06:10.118Z,4.43
2023-04-27T03:08:39.437Z,4.63
2023-04-27T03:11:09.270Z,4.85
2023-04-27T03:13:41.931Z,3.80
2023-04-27T03:16:11.743Z,4.63
2023-04-27T03:18:39.746Z,4.80
2023-04-27T03:21:09.113Z,3.67
2023-04-27T03:23:37.088Z,4.50
2023-04-27T03:26:08.812Z,4.57
2023-04-27T03:28:37.131Z,4.67
2023-04-27T03:31:06.440Z,4.28
2023-04-27T03:33:34.530Z,4.75
2023-04-27T03:36:02.595Z,4.22
2023-04-27T03:38:30.426Z,4.50
2023-04-27T03:40:58.431Z,4.65
2023-04-27T03:43:27.736Z,5.40
2023-04-27T03:45:56.143Z,4.45
2023-04-27T03:48:24.273Z,4.95
2023-04-27T03:50:52.557Z,4.68
2023-04-27T03:53:20.386Z,4.38
2023-04-27T03:55:48.548Z,4.18
2023-04-27T03:58:17.355Z,5.00
2023-04-27T04:00:46.764Z,5.07
2023-04-27T04:03:14.848Z,5.13
2023-04-27T04:05:43.059Z,4.20
2023-04-27T04:08:11.033Z,4.65
2023-04-27T04:10:39.636Z,5.07
2023-04-27T04:13:07.961Z,4.55
2023-04-27T04:15:35.992Z,4.80
2023-04-27T04:18:05.616Z,5.07
2023-04-27T04:20:36.090Z,4.40
2023-04-27T04:31:09.945Z,4.40
2023-04-27T04:33:39.528Z,4.68
2023-04-27T04:36:08.194Z,4.47
2023-04-27T04:38:36.661Z,5.13
2023-04-27T04:41:04.788Z,4.47
2023-04-27T04:43:32.926Z,4.30
2023-04-27T04:46:01.561Z,4.97
2023-04-27T04:48:30.487Z,5.20
2023-04-27T04:50:59.981Z,5.80
2023-04-27T04:53:28.187Z,4.68
2023-04-27T04:55:56.568Z,5.30
2023-04-27T04:58:24.777Z,5.30
2023-04-27T05:00:53.028Z,5.20
2023-04-27T05:03:21.385Z,4.40
2023-04-27T05:05:49.588Z,5.13
2023-04-27T05:08:18.854Z,5.28
2023-04-27T05:10:50.534Z,4.63
2023-04-27T05:13:18.764Z,5.57
2023-04-27T05:15:46.719Z,4.68
2023-04-27T05:18:14.787Z,5.30
2023-04-27T05:20:43.130Z,5.13
2023-04-27T05:23:11.617Z,5.15
2023-04-27T05:25:46.402Z,5.47
2023-04-27T05:28:14.490Z,4.45
2023-04-27T05:30:42.680Z,4.60
2023-04-27T05:33:11.268Z,5.20
2023-04-27T05:35:39.395Z,5.40
2023-04-27T05:38:07.479Z,5.50
2023-04-27T05:40:39.217Z,5.80
2023-04-27T05:43:13.574Z,4.80
2023-04-27T05:45:42.183Z,5.40
2023-04-27T05:48:10.555Z,5.90
2023-04-27T05:50:38.808Z,5.00
2023-04-27T05:53:07.162Z,4.65
2023-04-27T05:55:35.610Z,5.85
2023-04-27T05:58:08.356Z,5.25
2023-04-27T06:00:38.938Z,5.32
2023-04-27T06:03:07.252Z,5.22
2023-04-27T06:05:35.820Z,5.38
2023-04-27T06:08:03.991Z,5.15
2023-04-27T06:10:35.772Z,5.03
2023-04-27T06:13:09.645Z,5.85
2023-04-27T06:15:41.418Z,5.15
2023-04-27T06:18:18.581Z,5.35
2023-04-27T06:20:52.836Z,5.82
2023-04-27T06:26:29.961Z,4.80
2023-04-27T06:28:58.636Z,5.03
2023-04-27T06:31:33.959Z,5.25
2023-04-27T06:34:05.100Z,5.13
2023-04-27T06:36:33.534Z,4.97
2023-04-27T06:39:02.035Z,4.20
2023-04-27T06:41:35.872Z,6.70
2023-04-27T06:44:07.365Z,4.63
2023-04-27T06:46:49.136Z,4.97
2023-04-27T06:49:21.223Z,4.88
2023-04-27T06:51:50.081Z,4.85
2023-04-27T06:54:23.584Z,4.50
2023-04-27T06:56:51.787Z,4.93
2023-04-27T06:59:20.095Z,4.60
2023-04-27T07:01:51.280Z,5.18
2023-04-27T07:04:20.184Z,5.13
2023-04-27T07:06:48.578Z,4.75
2023-04-27T07:09:31.196Z,5.07
2023-04-27T07:12:01.514Z,5.72
2023-04-27T07:14:29.894Z,4.97
2023-04-27T07:17:00.937Z,4.82
2023-04-27T07:19:29.885Z,4.68
2023-04-27T07:22:01.011Z,4.82
2023-04-27T07:24:29.593Z,4.82
2023-04-27T07:26:59.508Z,5.38
2023-04-27T07:29:34.368Z,4.97
2023-04-27T07:32:09.717Z,4.25
2023-04-27T07:34:51.845Z,4.95
2023-04-27T07:37:22.393Z,4.45
2023-04-27T07:39:52.056Z,4.47
2023-04-27T07:42:22.601Z,4.25
2023-04-27T07:44:54.423Z,4.93
2023-04-27T07:47:24.159Z,4.28
2023-04-27T07:49:53.098Z,4.85
2023-04-27T07:52:21.561Z,4.43
2023-04-27T07:54:49.913Z,5.20
2023-04-27T07:57:18.362Z,4.60
2023-04-27T08:00:09.725Z,3.80
2023-04-27T08:02:39.738Z,4.80
2023-04-27T08:05:13.562Z,4.95
2023-04-27T08:07:59.499Z,4.80
2023-04-27T08:10:43.003Z,5.00
2023-04-27T08:13:19.676Z,4.63
2023-04-27T08:15:54.680Z,5.40
2023-04-27T08:18:32.963Z,5.47
2023-04-27T08:21:01.571Z,5.72
2023-04-27T08:23:49.898Z,4.63
2023-04-27T08:26:44.104Z,4.03
2023-04-27T08:29:26.404Z,4.15
2023-04-27T08:31:57.072Z,3.75
2023-04-27T08:34:33.581Z,4.32
2023-04-27T08:37:07.659Z,3.78
2023-04-27T08:39:38.737Z,4.05
2023-04-27T08:42:15.310Z,3.70
2023-04-27T08:44:50.849Z,4.40
2023-04-27T08:47:31.426Z,3.88
2023-04-27T08:50:09.926Z,4.35
2023-04-27T08:52:39.249Z,3.95
2023-04-27T08:55:15.841Z,4.32
2023-04-27T08:57:56.193Z,3.83
2023-04-27T09:00:33.065Z,4.53
2023-04-27T09:03:13.781Z,3.92
2023-04-27T09:06:11.761Z,3.58
2023-04-27T09:12:05.474Z,3.75
2023-04-27T09:14:49.311Z,3.85
2023-04-27T09:17:20.554Z,3.65
2023-04-27T09:19:59.062Z,4.18
2023-04-27T09:22:28.846Z,4.07
2023-04-27T09:24:57.094Z,3.85
2023-04-27T09:27:25.486Z,4.80
2023-04-27T09:29:54.008Z,3.70
2023-04-27T09:32:22.569Z,4.10
2023-04-27T09:34:50.902Z,3.55
2023-04-27T09:37:20.054Z,3.70
2023-04-27T09:39:50.625Z,4.05
2023-04-27T09:42:30.035Z,3.90
2023-04-27T09:45:03.871Z,4.40
2023-04-27T09:47:35.757Z,3.80
2023-04-27T09:50:06.566Z,4.82
2023-04-27T09:52:36.142Z,4.55
2023-04-27T09:55:33.396Z,4.30
2023-04-27T09:58:23.891Z,4.15
2023-04-27T10:01:07.685Z,4.20
2023-04-27T10:03:44.549Z,4.22
2023-04-27T10:06:53.360Z,4.45
2023-04-27T10:09:23.673Z,3.90
2023-04-27T10:11:56.684Z,4.18
2023-04-27T10:14:25.831Z,4.40
2023-04-27T10:16:55.179Z,4.13
2023-04-27T10:19:24.405Z,4.85
2023-04-27T10:21:57.877Z,3.47
2023-04-27T10:24:38.573Z,3.90
2023-04-27T10:27:11.273Z,4.88
2023-04-27T10:29:46.190Z,4.63
2023-04-27T10:32:21.070Z,4.55
2023-04-27T10:34:49.288Z,4.88
2023-04-27T10:37:17.802Z,4.68
2023-04-27T10:39:48.574Z,4.50
2023-04-27T10:42:29.481Z,4.32
2023-04-27T10:44:59.297Z,4.20
2023-04-27T10:47:38.310Z,5.15
2023-04-27T10:50:08.974Z,4.80
2023-04-27T10:52:37.321Z,4.05
2023-04-27T10:55:19.160Z,5.20
2023-04-27T10:57:50.134Z,4.07
2023-04-27T11:00:29.020Z,4.88
2023-04-27T11:02:59.072Z,4.30
2023-04-27T11:05:33.552Z,3.72
2023-04-27T11:08:08.698Z,3.22
2023-04-27T11:10:40.575Z,3.20
2023-04-27T11:13:12.632Z,3.00
2023-04-27T11:15:49.032Z,3.20
2023-04-27T11:18:18.136Z,4.70
2023-04-27T11:20:48.054Z,3.40
2023-04-27T11:23:26.248Z,4.10
2023-04-27T11:25:55.316Z,3.45
2023-04-27T11:28:26.321Z,2.88
2023-04-27T11:30:57.897Z,3.13
2023-04-27T11:33:27.109Z,2.50
2023-04-27T11:35:55.943Z,2.65
2023-04-27T11:38:24.991Z,2.45
2023-04-27T11:41:05.192Z,2.60
2023-04-27T11:43:41.005Z,3.20
2023-04-27T11:46:12.527Z,3.17
2023-04-27T11:48:41.470Z,2.78
2023-04-27T11:51:11.940Z,2.75
2023-04-27T11:53:51.373Z,4.28
2023-04-27T11:56:20.025Z,3.28
2023-04-27T11:58:53.374Z,3.35
2023-04-27T12:01:27.707Z,4.00
2023-04-27T12:04:02.620Z,2.83
2023-04-27T12:06:36.273Z,3.25
2023-04-27T12:09:05.514Z,3.55
2023-04-27T12:11:36.258Z,2.75
2023-04-27T12:14:07.270Z,3.47
2023-04-27T12:16:35.811Z,3.45
2023-04-27T12:19:04.471Z,2.72
2023-04-27T12:21:36.192Z,2.80
2023-04-27T12:24:04.908Z,3.13
2023-04-27T12:26:33.288Z,2.83
2023-04-27T12:29:16.170Z,2.58
2023-04-27T12:31:44.798Z,2.60
2023-04-27T12:34:13.395Z,3.30
2023-04-27T12:36:42.172Z,2.67
2023-04-27T12:39:19.726Z,3.35
2023-04-27T12:41:49.650Z,2.47
2023-04-27T12:44:20.640Z,2.75
2023-04-27T12:46:50.455Z,2.83
2023-04-27T12:49:19.168Z,2.85
2023-04-27T12:51:48.050Z,2.53
2023-04-27T12:54:16.660Z,3.20
2023-04-27T12:56:44.996Z,3.50
2023-04-27T12:59:13.290Z,3.20
2023-04-27T13:01:42.834Z,3.67
2023-04-27T13:04:11.463Z,2.85
2023-04-27T13:06:40.093Z,2.53
2023-04-27T13:09:08.418Z,2.80
2023-04-27T13:11:37.381Z,2.92
2023-04-27T13:14:05.974Z,2.70
2023-04-27T13:16:34.306Z,2.53
2023-04-27T13:19:04.108Z,2.50
2023-04-27T13:21:33.276Z,2.92
2023-04-27T13:24:01.546Z,2.47
2023-04-27T13:26:32.100Z,2.40
2023-04-27T13:29:00.821Z,3.13
2023-04-27T13:31:29.138Z,2.70
2023-04-27T13:33:57.499Z,2.20
2023-04-27T13:36:29.806Z,2.30
2023-04-27T13:51:55.849Z,2.40
2023-04-27T13:54:27.369Z,2.55
2023-04-27T13:56:55.652Z,2.20
2023-04-27T13:59:24.248Z,2.30
2023-04-27T14:01:52.295Z,2.42
2023-04-27T14:04:22.468Z,2.30
2023-04-27T14:06:53.083Z,2.47
2023-04-27T14:09:27.250Z,2.53
2023-04-27T14:11:58.196Z,2.65
2023-04-27T14:14:26.395Z,3.15
2023-04-27T14:16:54.726Z,2.40
2023-04-27T14:19:22.815Z,2.83
2023-04-27T14:21:51.293Z,2.85
2023-04-27T14:24:19.364Z,2.40
2023-04-27T14:26:49.520Z,2.72
2023-04-27T14:29:18.209Z,2.25
2023-04-27T14:31:47.687Z,2.80
2023-04-27T14:34:15.910Z,2.42
2023-04-27T14:36:46.687Z,2.53
2023-04-27T14:39:15.201Z,2.28
2023-04-27T14:41:43.622Z,2.33
2023-04-27T14:44:16.504Z,2.10
2023-04-27T14:46:44.806Z,2.40
2023-04-27T14:49:13.745Z,2.60
2023-04-27T14:51:44.525Z,2.90
2023-04-27T14:54:13.359Z,2.38
2023-04-27T14:56:41.521Z,2.00
2023-04-27T14:59:09.605Z,2.05
2023-04-27T15:01:39.435Z,2.60
2023-04-27T15:04:11.339Z,2.30
2023-04-27T15:06:39.560Z,2.25
2023-04-27T15:09:07.588Z,2.83
2023-04-27T15:11:35.710Z,2.33
2023-04-27T15:14:03.676Z,2.40
2023-04-27T15:16:31.940Z,2.63
2023-04-27T15:19:04.675Z,2.10
2023-04-27T15:21:34.420Z,2.15
2023-04-27T15:24:02.988Z,2.97
2023-04-27T15:26:31.180Z,2.35
2023-04-27T15:29:00.916Z,2.30
2023-04-27T15:31:28.957Z,2.05
2023-04-27T15:33:59.282Z,2.42
2023-04-27T15:36:28.910Z,2.47
2023-04-27T15:38:56.951Z,2.20
2023-04-27T15:41:25.183Z,2.03
2023-04-27T15:43:54.047Z,2.75
2023-04-27T15:46:22.332Z,2.15
2023-04-27T15:48:51.000Z,2.10
2023-04-27T15:51:19.335Z,1.83
2023-04-27T15:53:49.775Z,2.30
2023-04-27T15:56:18.074Z,2.30
2023-04-27T15:58:46.574Z,1.77
2023-04-27T16:01:15.039Z,2.03
2023-04-27T16:03:43.325Z,2.53
2023-04-27T16:06:12.082Z,2.05
2023-04-27T16:08:40.299Z,2.22
2023-04-27T16:11:09.893Z,2.83
2023-04-27T16:13:39.624Z,2.28
2023-04-27T16:16:09.142Z,1.98
2023-04-27T16:18:38.763Z,2.45
2023-04-27T16:21:07.330Z,2.10
2023-04-27T16:23:35.707Z,2.15
2023-04-27T16:26:04.026Z,1.95
2023-04-27T16:28:33.871Z,2.05
2023-04-27T16:31:02.204Z,1.80
2023-04-27T16:33:30.657Z,2.28
2023-04-27T16:35:59.075Z,1.85
2023-04-27T16:38:27.183Z,2.03
2023-04-27T16:40:58.627Z,2.10
2023-04-27T16:43:31.584Z,2.38
2023-04-27T16:46:06.042Z,1.55
2023-04-27T16:48:34.344Z,2.05
2023-04-27T16:51:02.569Z,2.30
2023-04-27T16:53:33.889Z,2.53
2023-04-27T16:56:02.245Z,3.03
2023-04-27T16:58:30.804Z,2.05
2023-04-27T17:01:10.605Z,2.20
2023-04-27T17:03:39.084Z,1.98
2023-04-27T17:06:08.491Z,1.98
2023-04-27T17:08:36.770Z,2.13
2023-04-27T17:11:45.341Z,1.58
2023-04-27T17:14:16.719Z,2.08
2023-04-27T17:20:14.755Z,1.90
2023-04-27T17:23:09.799Z,2.45
2023-04-27T17:25:43.476Z,2.03
2023-04-27T17:28:12.233Z,2.92
2023-04-27T17:30:41.970Z,1.98
2023-04-27T17:33:14.860Z,1.67
2023-04-27T17:35:47.411Z,1.83
2023-04-27T17:38:15.846Z,1.98
2023-04-27T17:40:44.400Z,2.17
2023-04-27T17:43:17.165Z,2.40
2023-04-27T17:45:59.830Z,2.30
2023-04-27T17:50:59.534Z,2.28
2023-04-27T17:54:41.125Z,1.90
2023-04-27T17:57:09.542Z,1.75
2023-04-27T17:59:38.062Z,2.13
2023-04-27T18:02:08.789Z,2.20
2023-04-27T18:05:19.175Z,2.05
2023-04-27T18:07:50.266Z,1.73
2023-04-27T18:10:18.502Z,2.40
2023-04-27T18:12:46.748Z,1.88
2023-04-27T18:15:14.839Z,1.95
2023-04-27T18:17:43.262Z,1.85
2023-04-27T18:20:12.085Z,2.25
2023-04-27T18:22:40.868Z,1.90
2023-04-27T18:25:11.919Z,2.25
2023-04-27T18:27:40.128Z,1.90
2023-04-27T18:30:09.015Z,2.08
2023-04-27T18:32:37.056Z,2.15
2023-04-27T18:35:09.283Z,2.15
2023-04-27T18:37:37.697Z,2.08
2023-04-27T18:40:06.943Z,2.47
2023-04-27T18:42:36.534Z,1.85
2023-04-27T18:45:05.431Z,2.33
2023-04-27T18:47:33.495Z,2.00
2023-04-27T18:54:14.374Z,2.20
2023-04-27T18:56:42.413Z,2.10
2023-04-27T18:59:12.156Z,1.88
2023-04-27T19:01:40.761Z,2.38
2023-04-27T19:04:09.048Z,1.70
2023-04-27T19:06:37.414Z,2.33
2023-04-27T19:09:05.638Z,2.17
2023-04-27T19:11:33.784Z,2.10
2023-04-27T19:14:01.833Z,2.25
2023-04-27T19:16:31.357Z,2.17
2023-04-27T19:18:59.470Z,2.20
2023-04-27T19:21:27.669Z,2.35
2023-04-27T19:23:55.666Z,2.58
2023-04-27T19:26:23.854Z,2.47
2023-04-27T19:28:52.010Z,2.40
2023-04-27T19:31:20.119Z,2.70
2023-04-27T19:36:23.162Z,2.78
2023-04-27T19:38:51.630Z,2.70
2023-04-27T19:41:19.707Z,3.28
2023-04-27T19:43:49.347Z,2.22
2023-04-27T19:46:17.490Z,2.90
2023-04-27T19:48:45.697Z,3.03
2023-04-27T19:51:15.138Z,4.05
2023-04-27T19:53:43.288Z,2.80
2023-04-27T19:56:11.479Z,2.70
2023-04-27T19:58:39.909Z,3.20
2023-04-27T20:01:08.064Z,2.65
2023-04-27T20:03:37.819Z,3.00
2023-04-27T20:06:10.438Z,2.92
2023-04-27T20:11:10.181Z,2.53
2023-04-27T20:13:38.340Z,3.00
2023-04-27T20:16:06.578Z,3.10
2023-04-27T20:18:35.146Z,3.00
2023-04-27T20:21:04.175Z,3.22
2023-04-27T20:23:32.206Z,2.88
2023-04-27T20:26:01.705Z,3.38
2023-04-27T20:28:30.571Z,2.70
2023-04-27T20:30:58.700Z,3.63
2023-04-27T20:33:26.784Z,3.17
2023-04-27T20:36:03.550Z,2.55
2023-04-27T20:38:34.714Z,3.22
2023-04-27T20:41:12.322Z,2.95
2023-04-27T20:43:40.664Z,3.33
2023-04-27T20:46:08.812Z,3.00
2023-04-27T20:48:36.752Z,3.15
2023-04-27T20:51:04.987Z,3.17
2023-04-27T20:53:32.987Z,2.90
2023-04-27T20:56:01.008Z,3.60
2023-04-27T20:58:30.388Z,2.92
2023-04-27T21:00:58.447Z,2.90
2023-04-27T21:03:26.961Z,2.58
2023-04-27T21:05:55.210Z,3.25
2023-04-27T21:08:23.168Z,3.58
2023-04-27T21:10:51.466Z,3.25
2023-04-27T21:13:19.590Z,3.53
2023-04-27T21:15:49.025Z,3.30
2023-04-27T21:18:29.065Z,3.17
2023-04-27T21:20:58.099Z,4.00
2023-04-27T21:23:26.226Z,3.83
2023-04-27T21:25:54.328Z,3.40
2023-04-27T21:28:22.367Z,3.25
2023-04-27T21:30:51.785Z,3.70
2023-04-27T21:33:19.827Z,3.58
2023-04-27T21:35:47.799Z,4.00
2023-04-27T21:38:15.842Z,3.33
2023-04-27T21:40:43.836Z,3.83
2023-04-27T21:43:11.782Z,3.47
2023-04-27T21:45:39.965Z,3.83
2023-04-27T21:48:09.419Z,3.65
2023-04-27T21:50:37.433Z,3.85
2023-04-27T21:53:05.415Z,3.63
2023-04-27T21:55:33.424Z,3.63
2023-04-27T21:58:01.389Z,4.20
2023-04-27T22:00:29.407Z,4.82
2023-04-27T22:03:07.191Z,4.07
2023-04-27T22:06:09.032Z,3.58
2023-04-27T22:08:45.162Z,4.55
2023-04-27T22:11:19.237Z,3.47
2023-04-27T22:13:52.970Z,4.18
2023-04-27T22:16:41.216Z,3.55
2023-04-27T22:19:26.869Z,4.00
2023-04-27T22:22:06.789Z,4.03
2023-04-27T22:24:40.138Z,3.78
2023-04-27T22:27:08.289Z,3.90
2023-04-27T22:29:36.298Z,3.85
2023-04-27T22:32:04.552Z,4.30
2023-04-27T22:34:33.141Z,3.70
2023-04-27T22:37:03.027Z,4.00
2023-04-27T22:39:32.310Z,4.43
2023-04-27T22:42:00.309Z,4.43
2023-04-27T22:44:28.395Z,4.80
2023-04-27T22:46:56.937Z,3.70
2023-04-27T22:49:25.027Z,4.28
2023-04-27T22:51:54.014Z,4.55
2023-04-27T22:54:23.588Z,4.88
2023-04-27T22:56:51.941Z,5.50
2023-04-27T22:59:22.902Z,4.68
2023-04-27T23:01:51.674Z,4.70
2023-04-27T23:04:20.392Z,4.22
2023-04-27T23:06:48.998Z,5.35
2023-04-27T23:09:17.029Z,4.82
2023-04-27T23:11:46.855Z,5.22
2023-04-27T23:14:18.221Z,4.93
2023-04-27T23:16:47.350Z,4.68
2023-04-27T23:19:15.443Z,4.43
2023-04-27T23:21:43.406Z,4.57
2023-04-27T23:24:11.465Z,4.55
2023-04-27T23:26:39.535Z,4.40
2023-04-27T23:29:09.071Z,4.10
2023-04-27T23:31:37.166Z,4.72
2023-04-27T23:34:05.329Z,4.57
2023-04-27T23:36:33.328Z,4.90
2023-04-27T23:39:01.723Z,5.05
2023-04-27T23:41:29.738Z,5.13
2023-04-27T23:43:57.639Z,4.45
2023-04-27T23:46:27.056Z,5.47
2023-04-27T23:48:54.988Z,4.80
2023-04-27T23:51:22.896Z,4.90
2023-04-27T23:53:50.842Z,5.47
2023-04-27T23:56:18.932Z,5.28
2023-04-27T23:58:46.900Z,6.00
